Cranston, Iowa
Current Conditions -  °F | °C
As of 2:15 AM on Thursday 27 Nov 2014 (Local Time) from KMUT Reporting Station
Overcast Overcast  
Wind Chill: -7°   Ceiling: 3700
Heat Index: -3°   Visibility: 8mi
Dew Point: -5°   Wind: 7mph
Humidity: 86%   Direction: 310°NW
Pressure: 30.35"   Gusts: NA
Location:  41.2841°N, 91.2045°W
Report Text: KMUT 270815Z AUTO 31006KT 8SM OVC037 M03/M05 A3035 RMK AO2
Loading
Personal Weather Stations






























Interactive Weather Map New forecast layout! Learn more

10-Day Weather Forecast

Advertisements
Track Severe Weather on mobile